Latest Coastal Weather Observations for Low Head

IDT60701

Issued at 6:32 pm EDT Friday 3 December 2021 (issued every 10 minutes, with the page automatically refreshed every 10 minutes)

About coastal observations | Map of coastal stations | Coastal observations for TAS | Marine services | Other Formats
Station Details ID: 091293 Name: LOW HEAD Lat: -41.05 Lon: 146.79 Height: 3.0 m
Data from the previous 72 hours. | See also: Recent months at Low Head
Date/Time
EDT
Wind Sea
Height
m
Swell Vis
km
Cloud Weather Temp
°C
Press
MSL
hPa
Rain since
9am
mm
Dir  Spd
kts
Gust
kts
Height
m
Period
s
Dir
03/06:30pm WNW 25 30 - - - - - - - 17.6 1014.1 0.0
03/06:00pm WNW 19 25 - - - - - - - 17.9 1014.4 0.0
03/05:30pm WNW 21 25 - - - - - - - 18.0 1014.8 0.0
03/05:00pm WNW 20 24 - - - - - - - 18.6 1015.0 0.0
03/04:30pm WNW 19 22 - - - - - - - 18.6 1015.3 0.0
03/04:00pm WNW 18 21 - - - - - - - 18.7 1015.4 0.0
03/03:30pm WNW 18 21 - - - - - - - 18.7 1015.6 0.0
03/03:00pm WNW 16 19 - - - - - - - 19.1 1015.8 0.0
03/02:30pm WNW 15 18 - - - - - - - 19.4 1015.9 0.0
03/02:00pm WNW 16 19 - - - - - - - 19.0 1016.2 0.0
03/01:30pm WNW 15 17 - - - - - - - 19.1 1016.1 0.0
03/01:00pm WNW 14 17 - - - - - - - 19.4 1016.1 0.0
03/12:30pm WNW 15 17 - - - - - - - 18.6 1016.0 0.0
03/12:00pm WNW 14 16 - - - - - - - 18.8 1016.2 0.0
03/11:30am WNW 14 16 - - - - - - - 18.4 1016.3 0.0
03/11:00am WNW 14 16 - - - - - - - 17.9 1016.3 0.0
03/10:30am W 14 16 - - - - - - - 17.2 1016.4 0.0
03/10:00am W 13 15 - - - - - - - 16.6 1016.4 0.0
03/09:30am W 13 15 - - - - - - - 16.3 1016.5 0.0
03/09:00am W 14 17 - - - - - - - 15.7 1016.5 10.2
03/08:30am WSW 12 15 - - - - - - - 15.5 1016.1 10.2
03/08:00am SW 12 14 - - - - - - - 15.3 1015.7 10.2
03/07:30am WSW 14 16 - - - - - - - 14.7 1015.5 10.2
03/07:00am WSW 20 24 - - - - - - - 14.4 1014.8 10.2
03/06:30am WSW 16 19 - - - - - - - 14.0 1014.5 10.2
03/06:00am WSW 22 24 - - - - - - - 14.1 1014.1 10.2
03/05:30am WSW 19 22 - - - - - - - 13.8 1013.7 10.2
03/05:00am WSW 23 27 - - - - - - - 14.0 1013.1 10.2
03/04:30am WSW 23 27 - - - - - - - 14.4 1012.8 10.2
03/04:00am WSW 22 25 - - - - - - - 14.5 1012.7 10.2
03/03:30am WSW 20 24 - - - - - - - 14.3 1012.4 10.2
03/03:00am WSW 14 17 - - - - - - - 13.9 1012.1 10.2
03/02:30am WSW 15 20 - - - - - - - 14.1 1012.2 10.2
03/02:00am WSW 20 22 - - - - - - - 14.4 1012.0 10.2
03/01:30am WSW 22 25 - - - - - - - 15.5 1011.6 10.2
03/01:00am WNW 22 25 - - - - - - - 15.2 1011.9 10.2
03/12:30am WNW 21 24 - - - - - - - 15.1 1012.2 10.2
03/12:00am WNW 18 21 - - - - - - - 15.8 1012.4 10.0
 
Date/Time
EDT
Wind Sea
Height
m
Swell Vis
km
Cloud Weather Temp
°C
Press
MSL
hPa
Rain since
9am
mm
Dir  Spd
kts
Gust
kts
Height
m
Period
s
Dir
02/11:30pm WNW 17 19 - - - - - - - 15.5 1013.1 10.0
02/11:19pm WNW 20 23 - - - - - - - 15.4 1013.3 10.0
02/11:00pm NW 17 20 - - - - - - - 15.9 1013.4 10.0
02/10:30pm NNW 14 18 - - - - - - - 16.4 1013.6 10.0
02/10:00pm NNW 12 14 - - - - - - - 16.7 1013.5 9.8
02/09:30pm NNW 11 13 - - - - - - - 16.7 1012.7 8.6
02/09:00pm NNW 13 16 - - - - - - Rain 16.9 1012.3 6.6
02/08:30pm N 12 14 - - - - - - - 16.8 1012.2 5.2
02/08:07pm N 16 22 - - - - - - - 17.4 1013.4 1.6
02/08:00pm NNE 14 17 - - - - - - - 17.4 1011.3 1.6
02/07:30pm NE 10 11 - - - - - - - 17.4 1010.2 1.6
02/07:00pm ENE 1 4 - - - - - - - 17.7 1010.4 1.6
02/06:30pm S 3 5 - - - - - - - 17.4 1010.7 1.0
02/06:00pm ENE 7 8 - - - - - - Recent precip. 17.6 1010.5 0.6
02/05:30pm NE 5 8 - - - - - - - 18.0 1010.9 0.6
02/05:00pm N 8 10 - - - - - - - 18.2 1011.8 0.2
02/04:30pm NNE 8 10 - - - - - - - 18.5 1010.9 0.2
02/04:00pm NNE 10 14 - - - - - - - 18.6 1011.6 0.2
02/03:30pm NNE 11 12 - - - - - - - 18.8 1012.2 0.0
02/03:00pm NNE 9 11 - - - - - - - 19.5 1012.3 0.0
02/02:30pm NE 11 12 - - - - - - - 20.9 1012.5 0.0
02/02:00pm NE 10 11 - - - - - - - 20.6 1012.7 0.0
02/01:30pm NE 11 13 - - - - - - - 20.6 1012.9 0.0
02/01:00pm NNE 11 13 - - - - - - - 20.0 1013.4 0.0
02/12:30pm NNE 13 14 - - - - - - - 19.5 1013.4 0.0
02/12:00pm NE 14 16 - - - - - - - 19.4 1013.5 0.0
02/11:30am NE 15 17 - - - - - - - 19.4 1013.5 0.0
02/11:00am NE 13 14 - - - - - - - 19.8 1013.8 0.0
02/10:30am NE 12 14 - - - - - - - 20.2 1014.1 0.0
02/10:00am NE 14 16 - - - - - - - 20.2 1014.0 0.0
02/09:30am NE 12 14 - - - - - - - 20.0 1014.4 0.0
02/09:00am NE 12 13 - - - - - - - 19.8 1014.2 0.0
02/08:30am NE 9 11 - - - - - - - 19.8 1014.0 0.0
02/08:00am SSE 6 7 - - - - - - - 18.2 1013.9 0.0
02/07:30am SSE 6 7 - - - - - - - 16.8 1013.6 0.0
02/07:00am SSE 7 8 - - - - - - - 15.9 1013.3 0.0
02/06:30am SE 7 8 - - - - - - - 14.8 1013.4 0.0
02/06:00am SSE 8 9 - - - - - - - 14.5 1013.4 0.0
02/05:30am SSE 8 9 - - - - - - - 14.5 1013.2 0.0
02/05:00am SE 9 10 - - - - - - - 14.6 1013.1 0.0
02/04:30am SE 8 10 - - - - - - - 14.7 1013.1 0.0
02/04:00am SSE 8 10 - - - - - - - 15.0 1013.4 0.0
02/03:30am SE 9 11 - - - - - - - 14.9 1013.3 0.0
02/03:00am SSE 8 9 - - - - - - - 14.9 1013.4 0.0
02/02:30am SE 7 9 - - - - - - - 15.9 1013.5 0.0
02/02:00am SE 7 9 - - - - - - - 15.5 1013.6 0.0
02/01:30am ESE 8 10 - - - - - - - 16.6 1014.0 0.0
02/01:00am E 6 7 - - - - - - - 16.4 1014.4 0.0
02/12:30am ENE 4 5 - - - - - - - 16.5 1014.6 0.0
02/12:00am E 6 8 - - - - - - - 16.6 1014.5 0.0
 
Date/Time
EDT
Wind Sea
Height
m
Swell Vis
km
Cloud Weather Temp
°C
Press
MSL
hPa
Rain since
9am
mm
Dir  Spd
kts
Gust
kts
Height
m
Period
s
Dir
01/11:30pm E 7 8 - - - - - - - 17.0 1014.4 0.0
01/11:00pm E 7 8 - - - - - - - 17.2 1014.4 0.0
01/10:30pm ESE 7 8 - - - - - - - 17.1 1014.4 0.0
01/10:00pm ENE 6 7 - - - - - - - 17.9 1014.4 0.0
01/09:30pm NE 8 10 - - - - - - - 18.5 1014.2 0.0
01/09:00pm NE 7 8 - - - - - - - 18.4 1014.1 0.0
01/08:30pm NE 8 10 - - - - - - - 18.5 1013.7 0.0
01/08:00pm NE 11 13 - - - - - - - 18.5 1013.5 0.0
01/07:30pm NE 13 14 - - - - - - - 18.8 1013.1 0.0
01/07:00pm NE 12 13 - - - - - - - 19.3 1012.7 0.0
01/06:30pm NE 11 12 - - - - - - - 19.3 1012.5 0.0
01/06:00pm NE 10 11 - - - - - - - 19.6 1012.3 0.0
01/05:30pm NNE 8 9 - - - - - - - 19.7 1012.6 0.0
01/05:00pm NE 11 12 - - - - - - - 20.5 1012.4 0.0
01/04:30pm NE 7 9 - - - - - - - 20.4 1012.6 0.0
01/04:00pm NNE 6 7 - - - - - - - 20.4 1013.2 0.0
01/03:30pm N 5 7 - - - - - - - 19.7 1013.6 0.0
01/03:00pm NNE 10 12 - - - - - - - 19.7 1013.5 0.0
01/02:30pm NNE 10 11 - - - - - - - 20.1 1013.3 0.0
01/02:00pm NE 10 12 - - - - - - - 19.7 1013.5 0.0
01/01:30pm NE 12 14 - - - - - - - 19.9 1013.5 0.0
01/01:00pm NE 11 13 - - - - - - - 19.4 1013.8 0.0
01/12:30pm NE 13 15 - - - - - - - 18.8 1014.0 0.0
01/12:00pm NE 15 16 - - - - - - - 18.7 1014.1 0.0
01/11:30am NE 15 16 - - - - - - - 18.4 1014.3 0.0
01/11:00am NE 14 16 - - - - - - - 18.6 1014.3 0.0
01/10:30am NE 12 14 - - - - - - - 18.4 1014.5 0.0
01/10:00am NE 13 15 - - - - - - - 18.2 1014.5 0.0
01/09:30am NE 13 15 - - - - - - - 17.5 1014.4 0.0
01/09:00am NE 11 13 - - - - - - - 17.9 1014.4 0.0
01/08:30am E 8 11 - - - - - - - 18.4 1014.3 0.0
01/08:00am E 11 13 - - - - - - - 17.3 1014.4 0.0
01/07:30am E 7 8 - - - - - - - 16.7 1014.5 0.0
01/07:00am SE 4 5 - - - - - - - 15.4 1014.2 0.0
01/06:30am SSE 7 8 - - - - - - - 14.2 1014.1 0.0
01/06:00am SE 6 7 - - - - - - - 13.8 1014.0 0.0
01/05:00am SE 7 8 - - - - - - - 14.0 1014.0 0.0
01/04:30am SE 6 7 - - - - - - - 14.0 1014.1 0.0
01/04:00am SE 7 8 - - - - - - - 13.9 1014.2 0.0
01/03:30am SE 7 8 - - - - - - - 14.2 1014.4 0.0
01/03:00am ESE 7 9 - - - - - - - 14.8 1014.7 0.0
01/02:30am ESE 8 10 - - - - - - - 14.7 1014.9 0.0
01/02:00am E 7 9 - - - - - - - 14.6 1015.1 0.0
01/01:30am E 8 10 - - - - - - - 14.5 1015.2 0.0
01/01:00am E 7 10 - - - - - - - 14.4 1015.2 0.0
01/12:30am E 7 9 - - - - - - - 14.5 1015.5 0.0
01/12:00am E 6 8 - - - - - - - 14.5 1015.9 0.0
 
Date/Time
EDT
Wind Sea
Height
m
Swell Vis
km
Cloud Weather Temp
°C
Press
MSL
hPa
Rain since
9am
mm
Dir  Spd
kts
Gust
kts
Height
m
Period
s
Dir
30/11:30pm E 7 9 - - - - - - - 14.9 1016.0 0.0
30/11:00pm E 9 11 - - - - - - - 15.7 1015.9 0.0
30/10:30pm ENE 10 13 - - - - - - - 16.3 1016.3 0.0
30/10:00pm ENE 12 15 - - - - - - - 16.7 1016.3 0.0
30/09:30pm ENE 15 17 - - - - - - - 16.8 1015.9 0.0
30/09:00pm ENE 16 19 - - - - - - - 16.9 1015.6 0.0
30/08:30pm ENE 15 18 - - - - - - - 17.2 1015.4 0.0
30/08:00pm NE 15 18 - - - - - - - 17.3 1015.3 0.0
30/07:30pm NE 17 19 - - - - - - - 17.4 1015.2 0.0
30/07:00pm NE 16 19 - - - - - - - 17.6 1015.1 0.0

Other formats

Comma delimited format used in spreadsheet applications
http://www.bom.gov.au/fwo/IDT60701/IDT60701.95964.axf

JavaScript Object Notation format (JSON) in row-major order
http://www.bom.gov.au/fwo/IDT60701/IDT60701.95964.json

Data quality

Most of these data are generated automatically and are frequently updated. Quality checks on data are not normally performed. It is possible for incorrect values to appear. Refer to information at About Latest Weather Observations and please check the disclaimer before using these data.